sensor_id;sensor_type;location;lat;lon;timestamp;pressure;altitude;pressure_sealevel;temperature;humidity
21742;BME280;11033;47.490;11.116;2023-01-24T00:01:40;94147.03;;;-2.88;82.83
21742;BME280;11033;47.490;11.116;2023-01-24T00:04:06;94155.34;;;-2.83;82.34
21742;BME280;11033;47.490;11.116;2023-01-24T00:06:31;94148.88;;;-2.90;83.10
21742;BME280;11033;47.490;11.116;2023-01-24T00:08:56;94151.53;;;-2.92;83.27
21742;BME280;11033;47.490;11.116;2023-01-24T00:11:21;94143.72;;;-2.90;83.11
21742;BME280;11033;47.490;11.116;2023-01-24T00:13:46;94146.03;;;-2.85;82.86
21742;BME280;11033;47.490;11.116;2023-01-24T00:18:37;94145.72;;;-2.95;83.89
21742;BME280;11033;47.490;11.116;2023-01-24T00:21:03;94145.53;;;-2.92;83.15
21742;BME280;11033;47.490;11.116;2023-01-24T00:23:29;94148.69;;;-2.87;83.13
21742;BME280;11033;47.490;11.116;2023-01-24T00:25:54;94148.88;;;-2.90;83.12
21742;BME280;11033;47.490;11.116;2023-01-24T00:28:19;94152.00;;;-2.85;82.79
21742;BME280;11033;47.490;11.116;2023-01-24T00:30:44;94148.53;;;-2.84;82.34
21742;BME280;11033;47.490;11.116;2023-01-24T00:33:09;94143.94;;;-2.79;81.78
21742;BME280;11033;47.490;11.116;2023-01-24T00:35:34;94143.53;;;-2.87;82.37
21742;BME280;11033;47.490;11.116;2023-01-24T00:38:00;94150.53;;;-2.89;82.67
21742;BME280;11033;47.490;11.116;2023-01-24T00:40:25;94146.69;;;-2.82;82.49
21742;BME280;11033;47.490;11.116;2023-01-24T00:42:50;94148.69;;;-2.87;82.75
21742;BME280;11033;47.490;11.116;2023-01-24T00:45:16;94147.44;;;-2.80;82.75
21742;BME280;11033;47.490;11.116;2023-01-24T00:47:41;94144.84;;;-2.80;82.39
21742;BME280;11033;47.490;11.116;2023-01-24T00:50:07;94158.50;;;-2.78;82.75
21742;BME280;11033;47.490;11.116;2023-01-24T00:52:32;94165.31;;;-2.77;82.62
21742;BME280;11033;47.490;11.116;2023-01-24T00:54:57;94163.97;;;-2.84;82.87
21742;BME280;11033;47.490;11.116;2023-01-24T00:57:22;94161.41;;;-2.84;82.92
21742;BME280;11033;47.490;11.116;2023-01-24T00:59:49;94169.81;;;-2.80;83.21
21742;BME280;11033;47.490;11.116;2023-01-24T01:02:14;94173.47;;;-2.84;82.98
21742;BME280;11033;47.490;11.116;2023-01-24T01:04:39;94172.03;;;-2.74;82.21
21742;BME280;11033;47.490;11.116;2023-01-24T01:07:04;94165.13;;;-2.74;82.08
21742;BME280;11033;47.490;11.116;2023-01-24T01:09:29;94177.28;;;-2.76;82.68
21742;BME280;11033;47.490;11.116;2023-01-24T01:11:55;94172.78;;;-2.72;82.47
21742;BME280;11033;47.490;11.116;2023-01-24T01:14:20;94166.63;;;-2.70;81.70
21742;BME280;11033;47.490;11.116;2023-01-24T01:16:45;94171.03;;;-2.72;81.88
21742;BME280;11033;47.490;11.116;2023-01-24T01:19:10;94175.44;;;-2.74;82.47
21742;BME280;11033;47.490;11.116;2023-01-24T01:21:35;94178.41;;;-2.66;82.08
21742;BME280;11033;47.490;11.116;2023-01-24T01:24:01;94176.19;;;-2.72;82.45
21742;BME280;11033;47.490;11.116;2023-01-24T01:26:26;94175.75;;;-2.64;81.76
21742;BME280;11033;47.490;11.116;2023-01-24T01:28:52;94186.25;;;-2.67;81.69
21742;BME280;11033;47.490;11.116;2023-01-24T01:31:17;94179.94;;;-2.77;82.85
21742;BME280;11033;47.490;11.116;2023-01-24T01:33:42;94179.41;;;-2.68;82.56
21742;BME280;11033;47.490;11.116;2023-01-24T01:36:08;94176.59;;;-2.64;82.00
21742;BME280;11033;47.490;11.116;2023-01-24T01:38:33;94180.34;;;-2.69;82.55
21742;BME280;11033;47.490;11.116;2023-01-24T01:40:59;94171.78;;;-2.70;82.50
21742;BME280;11033;47.490;11.116;2023-01-24T01:43:25;94182.09;;;-2.70;82.88
21742;BME280;11033;47.490;11.116;2023-01-24T01:45:51;94180.81;;;-2.63;82.10
21742;BME280;11033;47.490;11.116;2023-01-24T01:51:19;94183.25;;;-2.60;82.15
21742;BME280;11033;47.490;11.116;2023-01-24T01:53:53;94190.09;;;-2.59;81.80
21742;BME280;11033;47.490;11.116;2023-01-24T01:58:46;94184.09;;;-2.59;80.56
21742;BME280;11033;47.490;11.116;2023-01-24T02:01:11;94175.75;;;-2.64;80.42
21742;BME280;11033;47.490;11.116;2023-01-24T02:03:39;94177.28;;;-2.76;80.63
21742;BME280;11033;47.490;11.116;2023-01-24T02:06:16;94180.94;;;-2.80;81.25
21742;BME280;11033;47.490;11.116;2023-01-24T02:08:43;94180.03;;;-2.79;81.31
21742;BME280;11033;47.490;11.116;2023-01-24T02:11:08;94186.78;;;-2.92;81.90
21742;BME280;11033;47.490;11.116;2023-01-24T02:14:10;94189.00;;;-2.86;81.78
21742;BME280;11033;47.490;11.116;2023-01-24T02:16:54;94183.94;;;-2.88;81.48
21742;BME280;11033;47.490;11.116;2023-01-24T02:19:22;94177.22;;;-2.90;81.77
21742;BME280;11033;47.490;11.116;2023-01-24T02:21:52;94169.47;;;-2.90;81.89
21742;BME280;11033;47.490;11.116;2023-01-24T02:24:25;94168.47;;;-2.88;81.30
21742;BME280;11033;47.490;11.116;2023-01-24T02:26:54;94178.13;;;-2.91;81.53
21742;BME280;11033;47.490;11.116;2023-01-24T02:29:20;94173.56;;;-2.86;81.65
21742;BME280;11033;47.490;11.116;2023-01-24T02:34:16;94183.97;;;-3.03;82.34
21742;BME280;11033;47.490;11.116;2023-01-24T02:36:41;94180.28;;;-2.99;81.53
21742;BME280;11033;47.490;11.116;2023-01-24T02:39:08;94175.72;;;-2.94;81.34
21742;BME280;11033;47.490;11.116;2023-01-24T02:41:43;94178.81;;;-3.03;82.04
21742;BME280;11033;47.490;11.116;2023-01-24T02:44:10;94189.09;;;-3.03;81.62
21742;BME280;11033;47.490;11.116;2023-01-24T02:46:36;94192.44;;;-3.01;81.51
21742;BME280;11033;47.490;11.116;2023-01-24T02:49:02;94189.09;;;-3.03;81.25
21742;BME280;11033;47.490;11.116;2023-01-24T02:51:27;94197.00;;;-3.06;81.20
21742;BME280;11033;47.490;11.116;2023-01-24T02:54:11;94194.44;;;-3.06;81.44
21742;BME280;11033;47.490;11.116;2023-01-24T02:56:36;94192.34;;;-3.15;81.19
21742;BME280;11033;47.490;11.116;2023-01-24T02:59:20;94199.03;;;-3.29;82.07
21742;BME280;11033;47.490;11.116;2023-01-24T03:01:45;94199.78;;;-3.27;81.39
21742;BME280;11033;47.490;11.116;2023-01-24T03:04:10;94194.63;;;-3.27;81.59
21742;BME280;11033;47.490;11.116;2023-01-24T03:06:36;94197.22;;;-3.27;81.34
21742;BME280;11033;47.490;11.116;2023-01-24T03:09:02;94196.63;;;-3.32;81.60
21742;BME280;11033;47.490;11.116;2023-01-24T03:11:43;94193.38;;;-3.35;82.06
21742;BME280;11033;47.490;11.116;2023-01-24T03:14:08;94203.03;;;-3.39;81.92
21742;BME280;11033;47.490;11.116;2023-01-24T03:16:52;94187.56;;;-3.39;81.80
21742;BME280;11033;47.490;11.116;2023-01-24T03:19:36;94196.03;;;-3.37;81.93
21742;BME280;11033;47.490;11.116;2023-01-24T03:22:20;94195.47;;;-3.42;82.24
21742;BME280;11033;47.490;11.116;2023-01-24T03:25:04;94195.22;;;-3.37;81.97
21742;BME280;11033;47.490;11.116;2023-01-24T03:27:48;94200.78;;;-3.45;82.39
21742;BME280;11033;47.490;11.116;2023-01-24T03:30:32;94199.28;;;-3.49;82.37
21742;BME280;11033;47.490;11.116;2023-01-24T03:33:16;94210.81;;;-3.56;82.49
21742;BME280;11033;47.490;11.116;2023-01-24T03:36:00;94204.66;;;-3.54;82.55
21742;BME280;11033;47.490;11.116;2023-01-24T03:38:26;94204.81;;;-3.57;82.27
21742;BME280;11033;47.490;11.116;2023-01-24T03:41:10;94210.59;;;-3.69;82.90
21742;BME280;11033;47.490;11.116;2023-01-24T03:43:36;94208.94;;;-3.70;82.91
21742;BME280;11033;47.490;11.116;2023-01-24T03:46:01;94200.72;;;-3.76;83.27
21742;BME280;11033;47.490;11.116;2023-01-24T03:48:26;94208.28;;;-3.73;82.42
21742;BME280;11033;47.490;11.116;2023-01-24T03:50:59;94209.41;;;-3.79;82.86
21742;BME280;11033;47.490;11.116;2023-01-24T03:53:43;94205.09;;;-3.78;82.65
21742;BME280;11033;47.490;11.116;2023-01-24T03:56:08;94193.16;;;-3.79;82.16
21742;BME280;11033;47.490;11.116;2023-01-24T03:58:33;94199.44;;;-3.85;82.40
21742;BME280;11033;47.490;11.116;2023-01-24T04:00:59;94202.38;;;-3.93;82.70
21742;BME280;11033;47.490;11.116;2023-01-24T04:03:24;94205.56;;;-3.88;82.82
21742;BME280;11033;47.490;11.116;2023-01-24T04:05:49;94206.69;;;-3.93;82.36
21742;BME280;11033;47.490;11.116;2023-01-24T04:08:15;94194.38;;;-4.04;82.50
21742;BME280;11033;47.490;11.116;2023-01-24T04:10:40;94192.28;;;-4.13;83.48
21742;BME280;11033;47.490;11.116;2023-01-24T04:13:05;94208.00;;;-4.19;83.46
21742;BME280;11033;47.490;11.116;2023-01-24T04:15:31;94199.97;;;-4.13;82.96
21742;BME280;11033;47.490;11.116;2023-01-24T04:17:57;94205.28;;;-4.16;82.17
21742;BME280;11033;47.490;11.116;2023-01-24T04:20:23;94202.09;;;-4.21;82.17
21742;BME280;11033;47.490;11.116;2023-01-24T04:22:48;94202.56;;;-4.30;82.70
21742;BME280;11033;47.490;11.116;2023-01-24T04:25:13;94206.03;;;-4.31;82.69
21742;BME280;11033;47.490;11.116;2023-01-24T04:27:39;94187.00;;;-4.27;82.50
21742;BME280;11033;47.490;11.116;2023-01-24T04:30:05;94193.72;;;-4.42;82.70
21742;BME280;11033;47.490;11.116;2023-01-24T04:32:30;94190.78;;;-4.52;83.44
21742;BME280;11033;47.490;11.116;2023-01-24T04:34:55;94196.22;;;-4.40;82.36
21742;BME280;11033;47.490;11.116;2023-01-24T04:37:21;94192.75;;;-4.39;82.70
21742;BME280;11033;47.490;11.116;2023-01-24T04:39:46;94205.28;;;-4.51;82.28
21742;BME280;11033;47.490;11.116;2023-01-24T04:42:11;94203.88;;;-4.58;82.56
21742;BME280;11033;47.490;11.116;2023-01-24T04:44:36;94208.13;;;-4.57;83.08
21742;BME280;11033;47.490;11.116;2023-01-24T04:47:01;94209.31;;;-4.64;83.14
21742;BME280;11033;47.490;11.116;2023-01-24T04:49:27;94214.09;;;-4.56;82.66
21742;BME280;11033;47.490;11.116;2023-01-24T04:51:52;94217.66;;;-4.59;82.54
21742;BME280;11033;47.490;11.116;2023-01-24T04:54:18;94229.97;;;-4.65;83.13
21742;BME280;11033;47.490;11.116;2023-01-24T04:56:43;94234.41;;;-4.69;83.38
21742;BME280;11033;47.490;11.116;2023-01-24T04:59:11;94225.72;;;-4.66;83.13
21742;BME280;11033;47.490;11.116;2023-01-24T05:01:37;94228.50;;;-4.71;82.75
21742;BME280;11033;47.490;11.116;2023-01-24T05:04:02;94231.97;;;-4.72;82.96
21742;BME280;11033;47.490;11.116;2023-01-24T05:06:28;94232.13;;;-4.75;82.82
21742;BME280;11033;47.490;11.116;2023-01-24T05:08:54;94236.19;;;-4.88;82.97
21742;BME280;11033;47.490;11.116;2023-01-24T05:11:20;94240.88;;;-4.79;82.67
21742;BME280;11033;47.490;11.116;2023-01-24T05:13:45;94237.69;;;-4.84;82.80
21742;BME280;11033;47.490;11.116;2023-01-24T05:16:10;94244.50;;;-4.83;82.33
21742;BME280;11033;47.490;11.116;2023-01-24T05:18:35;94241.75;;;-4.97;83.16
21742;BME280;11033;47.490;11.116;2023-01-24T05:21:07;94236.25;;;-4.90;83.18
21742;BME280;11033;47.490;11.116;2023-01-24T05:23:32;94243.41;;;-4.96;82.82
21742;BME280;11033;47.490;11.116;2023-01-24T05:25:58;94241.28;;;-5.05;83.08
21742;BME280;11033;47.490;11.116;2023-01-24T05:28:23;94239.88;;;-5.13;83.92
21742;BME280;11033;47.490;11.116;2023-01-24T05:30:49;94249.25;;;-5.12;83.43
21742;BME280;11033;47.490;11.116;2023-01-24T05:33:14;94247.31;;;-5.06;83.22
21742;BME280;11033;47.490;11.116;2023-01-24T05:35:39;94251.63;;;-5.07;82.60
21742;BME280;11033;47.490;11.116;2023-01-24T05:38:05;94251.06;;;-5.14;83.16
21742;BME280;11033;47.490;11.116;2023-01-24T05:40:30;94259.91;;;-5.21;84.00
21742;BME280;11033;47.490;11.116;2023-01-24T05:42:55;94259.59;;;-5.13;83.71
21742;BME280;11033;47.490;11.116;2023-01-24T05:45:21;94252.09;;;-5.18;83.65
21742;BME280;11033;47.490;11.116;2023-01-24T05:47:46;94255.66;;;-5.20;84.28
21742;BME280;11033;47.490;11.116;2023-01-24T05:50:11;94263.75;;;-5.11;83.46
21742;BME280;11033;47.490;11.116;2023-01-24T05:52:36;94267.09;;;-5.08;83.05
21742;BME280;11033;47.490;11.116;2023-01-24T05:55:01;94268.97;;;-5.12;83.22
21742;BME280;11033;47.490;11.116;2023-01-24T05:57:27;94271.66;;;-5.15;83.54
21742;BME280;11033;47.490;11.116;2023-01-24T05:59:52;94267.63;;;-5.21;83.05
21742;BME280;11033;47.490;11.116;2023-01-24T06:02:18;94273.66;;;-5.22;82.84
21742;BME280;11033;47.490;11.116;2023-01-24T06:04:43;94277.88;;;-5.21;83.14
21742;BME280;11033;47.490;11.116;2023-01-24T06:07:08;94280.59;;;-5.24;83.11
21742;BME280;11033;47.490;11.116;2023-01-24T06:09:33;94283.91;;;-5.22;82.61
21742;BME280;11033;47.490;11.116;2023-01-24T06:11:58;94286.84;;;-5.29;82.47
21742;BME280;11033;47.490;11.116;2023-01-24T06:14:24;94286.13;;;-5.33;82.91
21742;BME280;11033;47.490;11.116;2023-01-24T06:16:49;94282.03;;;-5.37;83.09
21742;BME280;11033;47.490;11.116;2023-01-24T06:19:14;94298.34;;;-5.38;82.98
21742;BME280;11033;47.490;11.116;2023-01-24T06:24:31;94300.00;;;-5.37;83.28
21742;BME280;11033;47.490;11.116;2023-01-24T06:26:57;94309.44;;;-5.37;83.48
21742;BME280;11033;47.490;11.116;2023-01-24T06:29:22;94305.66;;;-5.49;83.54
21742;BME280;11033;47.490;11.116;2023-01-24T06:32:03;94311.38;;;-5.43;82.93
21742;BME280;11033;47.490;11.116;2023-01-24T06:39:21;94322.03;;;-5.52;83.81
21742;BME280;11033;47.490;11.116;2023-01-24T06:41:47;94322.88;;;-5.51;84.26
21742;BME280;11033;47.490;11.116;2023-01-24T06:44:12;94325.63;;;-5.56;83.99
21742;BME280;11033;47.490;11.116;2023-01-24T06:46:38;94326.84;;;-5.44;83.30
21742;BME280;11033;47.490;11.116;2023-01-24T06:49:03;94318.88;;;-5.38;83.22
21742;BME280;11033;47.490;11.116;2023-01-24T06:51:28;94325.03;;;-5.42;83.70
21742;BME280;11033;47.490;11.116;2023-01-24T06:53:53;94327.03;;;-5.49;83.81
21742;BME280;11033;47.490;11.116;2023-01-24T06:56:18;94331.59;;;-5.55;83.23
21742;BME280;11033;47.490;11.116;2023-01-24T06:58:44;94326.59;;;-5.58;83.79
21742;BME280;11033;47.490;11.116;2023-01-24T07:01:09;94327.56;;;-5.61;83.83
21742;BME280;11033;47.490;11.116;2023-01-24T07:03:34;94336.34;;;-5.66;83.72
21742;BME280;11033;47.490;11.116;2023-01-24T07:05:59;94326.78;;;-5.63;83.76
21742;BME280;11033;47.490;11.116;2023-01-24T07:08:25;94331.72;;;-5.58;83.69
21742;BME280;11033;47.490;11.116;2023-01-24T07:10:50;94331.72;;;-5.58;83.16
21742;BME280;11033;47.490;11.116;2023-01-24T07:13:15;94337.00;;;-5.61;82.96
21742;BME280;11033;47.490;11.116;2023-01-24T07:15:41;94337.13;;;-5.64;83.49
21742;BME280;11033;47.490;11.116;2023-01-24T07:18:07;94339.03;;;-5.69;83.20
21742;BME280;11033;47.490;11.116;2023-01-24T07:20:32;94344.75;;;-5.63;83.60
21742;BME280;11033;47.490;11.116;2023-01-24T07:22:58;94346.09;;;-5.75;83.98
21742;BME280;11033;47.490;11.116;2023-01-24T07:25:23;94345.00;;;-5.69;84.17
21742;BME280;11033;47.490;11.116;2023-01-24T07:27:50;94347.38;;;-5.64;83.40
21742;BME280;11033;47.490;11.116;2023-01-24T07:30:15;94346.63;;;-5.66;83.71
21742;BME280;11033;47.490;11.116;2023-01-24T07:32:40;94347.38;;;-5.64;83.41
21742;BME280;11033;47.490;11.116;2023-01-24T07:35:06;94351.03;;;-5.70;83.87
21742;BME280;11033;47.490;11.116;2023-01-24T07:37:31;94347.38;;;-5.64;83.66
21742;BME280;11033;47.490;11.116;2023-01-24T07:39:57;94352.25;;;-5.58;83.73
21742;BME280;11033;47.490;11.116;2023-01-24T07:42:22;94348.78;;;-5.57;83.92
21742;BME280;11033;47.490;11.116;2023-01-24T07:44:47;94348.78;;;-5.57;82.94
21742;BME280;11033;47.490;11.116;2023-01-24T07:47:12;94355.59;;;-5.56;83.43
21742;BME280;11033;47.490;11.116;2023-01-24T07:49:37;94356.41;;;-5.56;83.39
21742;BME280;11033;47.490;11.116;2023-01-24T07:52:03;94363.66;;;-5.45;83.40
21742;BME280;11033;47.490;11.116;2023-01-24T07:54:28;94360.06;;;-5.41;82.78
21742;BME280;11033;47.490;11.116;2023-01-24T07:56:53;94366.53;;;-5.32;82.75
21742;BME280;11033;47.490;11.116;2023-01-24T07:59:18;94371.75;;;-5.34;83.46
21742;BME280;11033;47.490;11.116;2023-01-24T08:01:43;94366.34;;;-5.28;83.11
21742;BME280;11033;47.490;11.116;2023-01-24T08:04:09;94360.84;;;-5.19;83.00
21742;BME280;11033;47.490;11.116;2023-01-24T08:06:34;94359.81;;;-5.15;82.88
21742;BME280;11033;47.490;11.116;2023-01-24T08:08:59;94360.16;;;-5.03;82.82
21742;BME280;11033;47.490;11.116;2023-01-24T08:11:25;94358.00;;;-4.94;82.76
21742;BME280;11033;47.490;11.116;2023-01-24T08:13:50;94366.91;;;-4.82;82.32
21742;BME280;11033;47.490;11.116;2023-01-24T08:16:15;94363.09;;;-4.73;82.34
21742;BME280;11033;47.490;11.116;2023-01-24T08:18:40;94358.28;;;-4.62;82.05
21742;BME280;11033;47.490;11.116;2023-01-24T08:21:06;94357.56;;;-4.45;81.54
21742;BME280;11033;47.490;11.116;2023-01-24T08:23:32;94357.13;;;-4.36;81.26
21742;BME280;11033;47.490;11.116;2023-01-24T08:25:57;94362.31;;;-4.19;80.92
21742;BME280;11033;47.490;11.116;2023-01-24T08:28:23;94368.59;;;-4.07;80.32
21742;BME280;11033;47.490;11.116;2023-01-24T08:30:48;94360.56;;;-4.19;80.67
21742;BME280;11033;47.490;11.116;2023-01-24T08:33:13;94359.59;;;-3.99;80.20
21742;BME280;11033;47.490;11.116;2023-01-24T08:35:42;94361.31;;;-3.80;80.30
21742;BME280;11033;47.490;11.116;2023-01-24T08:38:08;94364.34;;;-3.72;80.09
21742;BME280;11033;47.490;11.116;2023-01-24T08:40:33;94364.66;;;-3.61;80.29
21742;BME280;11033;47.490;11.116;2023-01-24T08:42:59;94364.50;;;-3.58;79.90
21742;BME280;11033;47.490;11.116;2023-01-24T08:45:24;94362.81;;;-3.42;79.71
21742;BME280;11033;47.490;11.116;2023-01-24T08:47:52;94361.00;;;-3.40;79.48
21742;BME280;11033;47.490;11.116;2023-01-24T08:50:18;94375.25;;;-3.15;79.36
21742;BME280;11033;47.490;11.116;2023-01-24T08:52:44;94372.78;;;-3.01;79.31
21742;BME280;11033;47.490;11.116;2023-01-24T08:55:09;94371.28;;;-3.05;79.53
21742;BME280;11033;47.490;11.116;2023-01-24T08:57:35;94375.16;;;-2.81;79.42
21742;BME280;11033;47.490;11.116;2023-01-24T09:00:00;94373.75;;;-2.71;78.72
21742;BME280;11033;47.490;11.116;2023-01-24T09:02:25;94375.19;;;-2.65;78.41
21742;BME280;11033;47.490;11.116;2023-01-24T09:04:50;94372.97;;;-2.56;78.43
21742;BME280;11033;47.490;11.116;2023-01-24T09:07:15;94374.00;;;-2.27;77.92
21742;BME280;11033;47.490;11.116;2023-01-24T09:09:41;94380.06;;;-2.12;77.12
21742;BME280;11033;47.490;11.116;2023-01-24T09:12:06;94374.56;;;-2.06;76.48
21742;BME280;11033;47.490;11.116;2023-01-24T09:14:31;94374.22;;;-2.00;76.96
21742;BME280;11033;47.490;11.116;2023-01-24T09:16:56;94374.31;;;-1.85;77.34
21742;BME280;11033;47.490;11.116;2023-01-24T09:19:22;94383.38;;;-1.78;76.41
21742;BME280;11033;47.490;11.116;2023-01-24T09:21:48;94375.47;;;-1.75;76.74
21742;BME280;11033;47.490;11.116;2023-01-24T09:24:19;94381.53;;;-1.76;76.22
21742;BME280;11033;47.490;11.116;2023-01-24T09:26:45;94385.38;;;-1.83;75.93
21742;BME280;11033;47.490;11.116;2023-01-24T09:29:10;94378.97;;;-1.76;75.20
21742;BME280;11033;47.490;11.116;2023-01-24T09:31:35;94387.22;;;-1.85;75.27
21742;BME280;11033;47.490;11.116;2023-01-24T09:34:00;94389.44;;;-1.64;75.33
21742;BME280;11033;47.490;11.116;2023-01-24T09:36:26;94380.97;;;-1.51;75.06
21742;BME280;11033;47.490;11.116;2023-01-24T09:38:51;94379.22;;;-1.51;75.01
21742;BME280;11033;47.490;11.116;2023-01-24T09:44:07;94389.44;;;-1.34;74.94
21742;BME280;11033;47.490;11.116;2023-01-24T09:46:39;94383.41;;;-1.18;74.81
21742;BME280;11033;47.490;11.116;2023-01-24T09:49:21;94385.97;;;-1.18;74.88
21742;BME280;11033;47.490;11.116;2023-01-24T09:51:52;94387.19;;;-1.10;73.55
21742;BME280;11033;47.490;11.116;2023-01-24T09:54:25;94396.34;;;-1.04;73.58
21742;BME280;11033;47.490;11.116;2023-01-24T09:56:54;94394.31;;;-1.13;73.36
21742;BME280;11033;47.490;11.116;2023-01-24T10:01:58;94387.03;;;-0.78;72.83
21742;BME280;11033;47.490;11.116;2023-01-24T10:04:34;94376.97;;;-0.69;73.65
21742;BME280;11033;47.490;11.116;2023-01-24T10:09:43;94379.31;;;-0.64;72.96
21742;BME280;11033;47.490;11.116;2023-01-24T10:14:40;94386.22;;;-0.36;73.87
21742;BME280;11033;47.490;11.116;2023-01-24T10:17:17;94385.78;;;-0.43;72.78
21742;BME280;11033;47.490;11.116;2023-01-24T10:19:49;94378.97;;;-0.17;73.93
21742;BME280;11033;47.490;11.116;2023-01-24T10:27:53;94373.66;;;-0.42;71.31
21742;BME280;11033;47.490;11.116;2023-01-24T10:30:26;94366.03;;;-0.17;73.00
21742;BME280;11033;47.490;11.116;2023-01-24T10:32:54;94364.34;;;-0.04;72.78
21742;BME280;11033;47.490;11.116;2023-01-24T10:35:26;94368.59;;;-0.03;71.24
21742;BME280;11033;47.490;11.116;2023-01-24T10:37:53;94374.28;;;0.17;71.13
21742;BME280;11033;47.490;11.116;2023-01-24T10:40:23;94369.84;;;0.19;71.13
21742;BME280;11033;47.490;11.116;2023-01-24T10:42:52;94362.03;;;0.33;71.35
21742;BME280;11033;47.490;11.116;2023-01-24T10:50:33;94360.03;;;0.63;70.53
21742;BME280;11033;47.490;11.116;2023-01-24T10:53:04;94360.81;;;0.51;69.52
21742;BME280;11033;47.490;11.116;2023-01-24T10:55:36;94351.53;;;0.61;70.67
21742;BME280;11033;47.490;11.116;2023-01-24T10:58:08;94357.97;;;0.29;68.78
21742;BME280;11033;47.490;11.116;2023-01-24T11:00:43;94355.94;;;0.74;70.20
21742;BME280;11033;47.490;11.116;2023-01-24T11:03:17;94341.66;;;1.32;69.45
21742;BME280;11033;47.490;11.116;2023-01-24T11:05:44;94336.34;;;0.95;67.58
21742;BME280;11033;47.490;11.116;2023-01-24T11:10:42;94332.22;;;2.64;63.77
21742;BME280;11033;47.490;11.116;2023-01-24T11:15:48;94326.94;;;3.34;64.22
21742;BME280;11033;47.490;11.116;2023-01-24T11:18:23;94310.50;;;4.22;62.52
21742;BME280;11033;47.490;11.116;2023-01-24T11:21:03;94317.38;;;4.66;59.35
21742;BME280;11033;47.490;11.116;2023-01-24T11:23:29;94318.09;;;6.31;59.08
21742;BME280;11033;47.490;11.116;2023-01-24T11:25:55;94321.19;;;5.96;58.47
21742;BME280;11033;47.490;11.116;2023-01-24T11:30:49;94318.50;;;5.87;54.17
21742;BME280;11033;47.490;11.116;2023-01-24T11:33:31;94310.78;;;7.78;54.06
21742;BME280;11033;47.490;11.116;2023-01-24T11:36:02;94296.66;;;8.71;51.14
21742;BME280;11033;47.490;11.116;2023-01-24T11:46:25;94283.63;;;12.45;43.16
21742;BME280;11033;47.490;11.116;2023-01-24T11:51:32;94289.00;;;11.08;41.55
21742;BME280;11033;47.490;11.116;2023-01-24T11:54:03;94284.25;;;12.78;42.04
21742;BME280;11033;47.490;11.116;2023-01-24T11:56:56;94281.34;;;11.94;42.49
21742;BME280;11033;47.490;11.116;2023-01-24T12:07:27;94266.00;;;13.74;40.35
21742;BME280;11033;47.490;11.116;2023-01-24T12:10:17;94272.78;;;13.91;39.45
21742;BME280;11033;47.490;11.116;2023-01-24T12:12:55;94264.25;;;15.55;36.71
21742;BME280;11033;47.490;11.116;2023-01-24T12:25:55;94256.75;;;17.50;33.45
21742;BME280;11033;47.490;11.116;2023-01-24T12:28:37;94255.88;;;16.48;34.03
21742;BME280;11033;47.490;11.116;2023-01-24T12:31:04;94234.03;;;16.18;38.58
21742;BME280;11033;47.490;11.116;2023-01-24T12:33:49;94238.72;;;16.16;36.05
21742;BME280;11033;47.490;11.116;2023-01-24T12:36:28;94239.03;;;15.44;37.35
21742;BME280;11033;47.490;11.116;2023-01-24T12:38:56;94240.56;;;17.11;35.81
21742;BME280;11033;47.490;11.116;2023-01-24T12:46:24;94242.13;;;12.99;39.23
21742;BME280;11033;47.490;11.116;2023-01-24T12:54:02;94242.19;;;13.37;38.62
21742;BME280;11033;47.490;11.116;2023-01-24T12:59:01;94255.09;;;12.40;40.33
21742;BME280;11033;47.490;11.116;2023-01-24T13:01:33;94250.66;;;12.63;39.65
21742;BME280;11033;47.490;11.116;2023-01-24T13:07:02;94263.59;;;10.74;41.76
21742;BME280;11033;47.490;11.116;2023-01-24T13:12:12;94271.47;;;10.16;42.52
21742;BME280;11033;47.490;11.116;2023-01-24T13:17:31;94275.91;;;9.04;43.68
21742;BME280;11033;47.490;11.116;2023-01-24T13:20:03;94275.28;;;9.28;44.16
21742;BME280;11033;47.490;11.116;2023-01-24T13:22:47;94273.44;;;11.86;38.54
21742;BME280;11033;47.490;11.116;2023-01-24T13:28:10;94265.09;;;12.14;39.73
21742;BME280;11033;47.490;11.116;2023-01-24T13:30:47;94264.31;;;12.05;39.99
21742;BME280;11033;47.490;11.116;2023-01-24T13:33:18;94268.88;;;11.39;41.57
21742;BME280;11033;47.490;11.116;2023-01-24T13:35:45;94277.75;;;10.82;41.78
21742;BME280;11033;47.490;11.116;2023-01-24T13:38:26;94272.03;;;12.77;39.67
21742;BME280;11033;47.490;11.116;2023-01-24T13:46:11;94266.44;;;17.97;32.70
21742;BME280;11033;47.490;11.116;2023-01-24T13:56:24;94264.94;;;17.15;30.47
21742;BME280;11033;47.490;11.116;2023-01-24T13:58:50;94259.31;;;19.13;32.33
21742;BME280;11033;47.490;11.116;2023-01-24T14:01:16;94257.53;;;19.00;30.21
21742;BME280;11033;47.490;11.116;2023-01-24T14:03:46;94253.03;;;19.89;30.29
21742;BME280;11033;47.490;11.116;2023-01-24T14:06:17;94257.63;;;17.77;32.07
21742;BME280;11033;47.490;11.116;2023-01-24T14:08:43;94258.94;;;14.91;32.79
21742;BME280;11033;47.490;11.116;2023-01-24T14:11:16;94255.00;;;13.48;38.12
21742;BME280;11033;47.490;11.116;2023-01-24T14:13:43;94259.31;;;12.49;41.35
21742;BME280;11033;47.490;11.116;2023-01-24T14:18:53;94272.97;;;9.25;42.47
21742;BME280;11033;47.490;11.116;2023-01-24T14:21:20;94269.19;;;14.58;36.17
21742;BME280;11033;47.490;11.116;2023-01-24T14:23:49;94261.56;;;16.04;32.52
21742;BME280;11033;47.490;11.116;2023-01-24T14:26:17;94264.94;;;15.42;32.20
21742;BME280;11033;47.490;11.116;2023-01-24T14:28:53;94264.09;;;17.08;32.37
21742;BME280;11033;47.490;11.116;2023-01-24T14:31:22;94261.03;;;16.57;32.80
21742;BME280;11033;47.490;11.116;2023-01-24T14:34:04;94253.81;;;16.09;33.46
21742;BME280;11033;47.490;11.116;2023-01-24T14:36:33;94264.53;;;13.72;35.10
21742;BME280;11033;47.490;11.116;2023-01-24T14:41:44;94254.72;;;15.89;33.56
21742;BME280;11033;47.490;11.116;2023-01-24T14:44:24;94263.22;;;16.05;33.55
21742;BME280;11033;47.490;11.116;2023-01-24T14:46:53;94254.88;;;15.80;31.86
21742;BME280;11033;47.490;11.116;2023-01-24T14:49:26;94256.72;;;16.14;34.81
21742;BME280;11033;47.490;11.116;2023-01-24T14:51:51;94262.34;;;14.05;36.88
21742;BME280;11033;47.490;11.116;2023-01-24T14:54:21;94262.91;;;11.54;41.79